Monday, December 5, 2016, 11:36 AM EST

KFDK, Frederick, Frederick Municipal Airport

Location: Frederick, MD, United States Lat: 39.417
Local Time: 11:36 AM EST (16:36 GMT) Lon: -77.374
Time Zone: US/Eastern Elev: 301 ft

Show me the last for .
Show Decoded

2016-12-05 10:47 METAR KFDK 051547Z 24005KT 10SM SCT007 08/07 A3006 =
2016-12-05 09:47 METAR KFDK 051447Z 23004KT 10SM SCT007 BKN050 06/06 A3005 =
2016-12-05 09:33 METAR KFDK 051433Z 00000KT 10SM SCT008 OVC050 05/05 A3006 =
2016-12-05 08:50 METAR KFDK 051350Z 00000KT 10SM OVC008 04/04 A3005 =
2016-12-05 07:48 METAR KFDK 051248Z 22006KT 10SM OVC008 04/04 A3003 =
2016-12-05 06:55 METAR KFDK 051155Z 21006KT 10SM OVC008 04/04 A3002 =
2016-12-05 06:50 METAR KFDK 051150Z AUTO 20006KT 10SM OVC008 04/04 A3002 RMK AO2 =
2016-12-05 06:35 METAR KFDK 051135Z AUTO 20006KT 10SM OVC008 04/04 A3002 RMK AO2 =
2016-12-05 06:15 METAR KFDK 051115Z AUTO 20008KT 10SM OVC008 04/04 A3002 RMK AO2 =
2016-12-05 05:55 METAR KFDK 051055Z AUTO 19006KT 10SM OVC008 04/04 A3002 RMK AO2 =
2016-12-05 05:35 METAR KFDK 051035Z AUTO 19005KT 10SM OVC008 03/03 A3001 RMK AO2 =
2016-12-05 05:15 METAR KFDK 051015Z AUTO 19006KT 10SM OVC008 03/03 A3001 RMK AO2 =
2016-12-05 04:55 METAR KFDK 050955Z AUTO 21006KT 10SM OVC008 03/03 A3002 RMK AO2 =
2016-12-05 04:35 METAR KFDK 050935Z AUTO 20007KT 10SM OVC008 03/03 A3002 RMK AO2 =
2016-12-05 04:15 METAR KFDK 050915Z AUTO 20006KT 10SM OVC008 03/03 A3002 RMK AO2 =
2016-12-05 03:55 METAR KFDK 050855Z AUTO 19008KT 10SM OVC010 03/03 A3002 RMK AO2 =
2016-12-05 03:35 METAR KFDK 050835Z AUTO 19009KT 10SM OVC010 03/03 A3002 RMK AO2 =
2016-12-05 03:15 METAR KFDK 050815Z AUTO 18005KT 10SM OVC010 03/03 A3002 RMK AO2 =
2016-12-05 02:55 METAR KFDK 050755Z AUTO 19006KT 10SM OVC010 03/03 A3002 RMK AO2 P0002 =
2016-12-05 02:35 METAR KFDK 050735Z AUTO 18007KT 7SM -RA OVC010 03/03 A3004 RMK AO2 P0002 =
2016-12-05 02:15 METAR KFDK 050715Z AUTO 18008KT 7SM -RA OVC008 03/03 A3004 RMK AO2 P0001 =
2016-12-05 01:55 METAR KFDK 050655Z AUTO 18008KT 3SM RA OVC008 03/03 A3003 RMK AO2 P0008 =
2016-12-05 01:35 METAR KFDK 050635Z AUTO 17006KT 2 1/2SM -RA OVC008 03/03 A3004 RMK AO2 P0004 =
2016-12-05 01:15 METAR KFDK 050615Z AUTO 17007KT 2 1/2SM -RA BKN008 OVC015 03/03 A3005 RMK AO2
                 P0002 =
2016-12-05 00:55 METAR KFDK 050555Z AUTO 17004KT 4SM -RA OVC008 03/03 A3005 RMK AO2 P0008 =
2016-12-05 00:35 METAR KFDK 050535Z AUTO 18007KT 3SM RA OVC008 03/03 A3006 RMK AO2 P0006 =
2016-12-05 00:15 METAR KFDK 050515Z AUTO 18006KT 4SM RA OVC012 03/03 A3006 RMK AO2 P0002 =
2016-12-04 23:55 METAR KFDK 050455Z AUTO 17006KT 5SM -RA BKN014 BKN022 OVC030 03/03 A3007 RMK AO2
                 P0003 =
2016-12-04 23:35 METAR KFDK 050435Z AUTO 16005KT 7SM -RA SCT014 BKN032 OVC039 03/03 A3008 RMK AO2
                 P0001 =
2016-12-04 23:15 METAR KFDK 050415Z AUTO 16003KT 10SM -RA OVC041 03/03 A3010 RMK AO2 =
2016-12-04 22:55 METAR KFDK 050355Z AUTO 15004KT 7SM -RA OVC041 03/02 A3011 =
2016-12-04 22:35 METAR KFDK 050335Z AUTO 19004KT 7SM RA OVC041 03/01 A3013 RMK AO2 P0001 =
2016-12-04 22:15 METAR KFDK 050315Z AUTO 15004KT 10SM -RA OVC043 03/01 A3011 RMK AO2 =
2016-12-04 21:55 METAR KFDK 050255Z AUTO 16004KT 10SM -RA BKN047 OVC050 03/01 A3012 RMK AO2 =
2016-12-04 21:35 METAR KFDK 050235Z AUTO 15004KT 10SM -RA BKN048 BKN050 OVC060 04/01 A3013 RMK
                 AO2 =
2016-12-04 21:15 METAR KFDK 050215Z AUTO 16005KT 10SM -RA OVC060 05/00 A3014 RMK AO2 =
2016-12-04 18:48 METAR KFDK 042348Z 00000KT 10SM CLR 05/00 A3017 =
2016-12-04 17:47 METAR KFDK 042247Z 00000KT 10SM CLR 06/M01 A3020 =
2016-12-04 16:47 METAR KFDK 042147Z 00000KT 10SM CLR 06/M01 A3020 =
2016-12-04 15:47 METAR KFDK 042047Z 23004KT 10SM CLR 07/M01 A3023 =
2016-12-04 14:50 METAR KFDK 041950Z 00000KT 10SM CLR 07/M01 A3023 =
2016-12-04 13:47 METAR KFDK 041847Z 24004KT 10SM CLR 07/M01 A3024 =
2016-12-04 12:47 METAR KFDK 041747Z 26004KT 10SM SCT037 07/M01 A3026 =
2016-12-04 11:47 METAR KFDK 041647Z 00000KT 10SM SCT043 06/M01 A3028 =

Support USWX by starting your Amazon purchase here.